Time;durP1;ratioP1;P1;durP2;ratioP2;P2;SDS_P1;SDS_P2;PMS_P1;PMS_P2;Temp;Humidity;BMP_temperature;BMP_pressure;BME280_temperature;BME280_humidity;BME280_pressure;Samples;Min_cycle;Max_cycle;Signal;HPM_P1;HPM_P2
2021/08/09 00:02:17;;;;;;;8.80;2.65;;;;;;;;;;6277161;22;20027;-84
2021/08/09 00:04:50;;;;;;;7.68;2.88;;;;;;;;;;6277770;22;20437;-84
2021/08/09 00:07:19;;;;;;;5.63;2.85;;;;;;;;;;6278619;22;20027;-84
2021/08/09 00:09:49;;;;;;;6.80;2.53;;;;;;;;;;6277489;22;20358;-83
2021/08/09 00:12:15;;;;;;;8.20;2.92;;;;;;;;;;6252812;22;20034;-84
2021/08/09 00:14:42;;;;;;;7.45;2.85;;;;;;;;;;6253051;22;20379;-84
2021/08/09 00:17:09;;;;;;;8.32;2.97;;;;;;;;;;6253994;22;20071;-84
2021/08/09 00:19:38;;;;;;;7.78;2.80;;;;;;;;;;6277984;22;20115;-84
2021/08/09 00:22:04;;;;;;;8.82;2.60;;;;;;;;;;6280493;22;20034;-86
2021/08/09 00:24:34;;;;;;;6.68;2.40;;;;;;;;;;6251915;22;20424;-85
2021/08/09 00:27:01;;;;;;;8.23;2.88;;;;;;;;;;6278432;22;20055;-83
2021/08/09 00:29:28;;;;;;;6.43;2.85;;;;;;;;;;6276875;22;20027;-85
2021/08/09 00:31:54;;;;;;;5.35;2.33;;;;;;;;;;6278813;22;20027;-85
2021/08/09 00:34:21;;;;;;;5.80;2.30;;;;;;;;;;6274076;22;20068;-84
2021/08/09 00:36:47;;;;;;;5.45;2.38;;;;;;;;;;6224591;23;20119;-84
2021/08/09 00:39:14;;;;;;;9.77;2.80;;;;;;;;;;6246100;23;20024;-84
2021/08/09 00:41:44;;;;;;;5.10;2.40;;;;;;;;;;6219886;23;20080;-84
2021/08/09 00:44:11;;;;;;;5.10;2.50;;;;;;;;;;6222309;23;20024;-84
2021/08/09 00:46:37;;;;;;;6.22;2.83;;;;;;;;;;6221769;23;20035;-85
2021/08/09 00:49:04;;;;;;;6.82;2.63;;;;;;;;;;6221628;23;20024;-85
2021/08/09 00:51:31;;;;;;;7.25;2.70;;;;;;;;;;6222882;23;20024;-84
2021/08/09 00:53:57;;;;;;;4.65;2.83;;;;;;;;;;6221997;23;20024;-84
2021/08/09 00:56:24;;;;;;;11.98;2.80;;;;;;;;;;6223871;23;20031;-85
2021/08/09 00:58:56;;;;;;;7.72;2.65;;;;;;;;;;6249311;23;20024;-84
2021/08/09 01:01:23;;;;;;;7.55;2.70;;;;;;;;;;6247826;23;20035;-85
2021/08/09 01:03:49;;;;;;;8.18;3.03;;;;;;;;;;6248234;23;20302;-85
2021/08/09 01:06:16;;;;;;;7.38;2.75;;;;;;;;;;6223072;23;20382;-84
2021/08/09 01:08:52;;;;;;;8.05;2.95;;;;;;;;;;6249166;23;20047;-85
2021/08/09 01:11:42;;;;;;;9.02;3.22;;;;;;;;;;6247134;23;20028;-85
2021/08/09 01:14:09;;;;;;;7.53;2.83;;;;;;;;;;6249715;23;20055;-84
2021/08/09 01:16:37;;;;;;;8.35;3.10;;;;;;;;;;6249316;23;20177;-85
2021/08/09 01:19:24;;;;;;;8.77;3.28;;;;;;;;;;6250129;23;20028;-84
2021/08/09 01:21:50;;;;;;;;;;;;;;;;;;6187338;23;20084;-85
2021/08/09 01:24:42;;;;;;;7.97;3.15;;;;;;;;;;6222621;23;19929;-85
2021/08/09 01:27:15;;;;;;;7.97;3.00;;;;;;;;;;6249817;23;20048;-85
2021/08/09 01:29:45;;;;;;;9.82;3.20;;;;;;;;;;6223890;23;20183;-85
2021/08/09 01:32:12;;;;;;;4.28;3.15;;;;;;;;;;6222233;23;20024;-85
2021/08/09 01:34:41;;;;;;;9.30;3.97;;;;;;;;;;6248361;22;20036;-85
2021/08/09 01:37:08;;;;;;;6.78;3.38;;;;;;;;;;6248641;23;20224;-84
2021/08/09 01:39:35;;;;;;;7.75;3.22;;;;;;;;;;6223046;23;20023;-85
2021/08/09 01:42:02;;;;;;;8.70;3.30;;;;;;;;;;6249131;23;20099;-84
2021/08/09 01:44:29;;;;;;;11.52;3.30;;;;;;;;;;6225265;23;20035;-84
2021/08/09 01:46:56;;;;;;;14.30;3.70;;;;;;;;;;6250707;23;20028;-84
2021/08/09 01:49:23;;;;;;;8.00;4.20;;;;;;;;;;6240277;22;20050;-85
2021/08/09 01:51:50;;;;;;;9.77;3.05;;;;;;;;;;6242348;22;20008;-84
2021/08/09 01:54:17;;;;;;;9.60;3.63;;;;;;;;;;6224205;23;20059;-84
2021/08/09 01:56:44;;;;;;;15.15;3.90;;;;;;;;;;6248729;23;20059;-85
2021/08/09 01:59:11;;;;;;;10.45;3.53;;;;;;;;;;6220206;23;20044;-85
2021/08/09 02:01:39;;;;;;;8.15;3.80;;;;;;;;;;6220808;23;20032;-84
2021/08/09 02:04:05;;;;;;;15.45;4.20;;;;;;;;;;6257478;22;20032;-86
2021/08/09 02:06:32;;;;;;;9.07;3.92;;;;;;;;;;6242863;22;20068;-84
2021/08/09 02:08:59;;;;;;;10.05;4.28;;;;;;;;;;6232539;23;20196;-85
2021/08/09 02:11:45;;;;;;;8.93;3.90;;;;;;;;;;6226198;23;20034;-85
2021/08/09 02:14:12;;;;;;;;;;;;;;;;;;6250487;23;20094;-82
2021/08/09 02:16:39;;;;;;;;;;;;;;;;;;6238011;23;19915;-81
2021/08/09 02:19:09;;;;;;;14.38;4.20;;;;;;;;;;6223725;23;19981;-82
2021/08/09 02:21:42;;;;;;;13.25;3.80;;;;;;;;;;6217938;23;20020;-82
2021/08/09 02:24:10;;;;;;;11.45;3.75;;;;;;;;;;6218672;23;20139;-82
2021/08/09 02:26:44;;;;;;;10.55;3.72;;;;;;;;;;6246167;23;20040;-81
2021/08/09 02:29:12;;;;;;;8.73;3.47;;;;;;;;;;6220101;23;20428;-81
2021/08/09 02:31:41;;;;;;;10.18;3.97;;;;;;;;;;6245720;23;20024;-82
2021/08/09 02:34:09;;;;;;;8.13;3.45;;;;;;;;;;6222592;22;20252;-82
2021/08/09 02:36:36;;;;;;;8.80;3.63;;;;;;;;;;6250424;22;20107;-81
2021/08/09 02:39:03;;;;;;;13.30;3.53;;;;;;;;;;6277207;22;20038;-81
2021/08/09 02:41:30;;;;;;;13.43;3.13;;;;;;;;;;6275783;22;20040;-81
2021/08/09 02:43:57;;;;;;;13.63;3.40;;;;;;;;;;6276318;22;20028;-81
2021/08/09 02:46:24;;;;;;;13.75;4.25;;;;;;;;;;6277939;22;20118;-81
2021/08/09 02:48:51;;;;;;;11.63;3.80;;;;;;;;;;6279991;22;20039;-82
2021/08/09 02:51:18;;;;;;;9.82;3.78;;;;;;;;;;6277739;22;20034;-82
2021/08/09 02:53:46;;;;;;;11.02;4.18;;;;;;;;;;6277848;22;20034;-81
2021/08/09 02:56:15;;;;;;;11.30;3.25;;;;;;;;;;6252590;22;20024;-82
2021/08/09 02:58:44;;;;;;;8.82;3.80;;;;;;;;;;6277799;22;20020;-82
2021/08/09 03:01:14;;;;;;;10.35;3.80;;;;;;;;;;6251321;22;20028;-82
2021/08/09 03:03:42;;;;;;;9.68;3.65;;;;;;;;;;6251901;22;20416;-82
2021/08/09 03:06:10;;;;;;;10.43;3.72;;;;;;;;;;6252271;22;20063;-82
2021/08/09 03:08:36;;;;;;;9.80;4.28;;;;;;;;;;6250894;22;20026;-81
2021/08/09 03:11:07;;;;;;;7.28;3.63;;;;;;;;;;6277407;22;20183;-82
2021/08/09 03:13:34;;;;;;;13.48;4.68;;;;;;;;;;6251290;22;20589;-82
2021/08/09 03:16:00;;;;;;;11.73;3.65;;;;;;;;;;6277888;22;20031;-82
2021/08/09 03:18:33;;;;;;;16.92;4.50;;;;;;;;;;6277476;22;20034;-81
2021/08/09 03:21:03;;;;;;;9.30;3.97;;;;;;;;;;6275313;22;20472;-82
2021/08/09 03:23:29;;;;;;;12.45;4.25;;;;;;;;;;6277664;22;20028;-82
2021/08/09 03:25:56;;;;;;;10.15;4.32;;;;;;;;;;6250710;22;20114;-81
2021/08/09 03:28:23;;;;;;;13.38;4.22;;;;;;;;;;6251185;22;20034;-81
2021/08/09 03:30:50;;;;;;;13.90;3.85;;;;;;;;;;6250076;22;20023;-81
2021/08/09 03:33:16;;;;;;;13.10;4.35;;;;;;;;;;6248509;22;20073;-82
2021/08/09 03:35:43;;;;;;;11.15;3.78;;;;;;;;;;6252913;22;20142;-81
2021/08/09 03:38:10;;;;;;;13.43;4.72;;;;;;;;;;6248994;23;20027;-80
2021/08/09 03:40:36;;;;;;;12.40;4.28;;;;;;;;;;6254917;23;20072;-81
2021/08/09 03:43:04;;;;;;;15.10;4.03;;;;;;;;;;6254113;23;20256;-80
2021/08/09 03:45:31;;;;;;;9.82;4.43;;;;;;;;;;6254994;23;20032;-82
2021/08/09 03:47:57;;;;;;;14.20;4.78;;;;;;;;;;6229620;23;20035;-81
2021/08/09 03:50:24;;;;;;;16.75;4.18;;;;;;;;;;6226641;23;20245;-83
2021/08/09 03:52:52;;;;;;;15.07;4.43;;;;;;;;;;6220088;23;20098;-81
2021/08/09 03:55:20;;;;;;;13.32;4.72;;;;;;;;;;6220030;23;20023;-81
2021/08/09 03:57:47;;;;;;;11.95;4.25;;;;;;;;;;6219480;23;20284;-81
2021/08/09 04:00:13;;;;;;;13.90;4.78;;;;;;;;;;6220531;23;20024;-82
2021/08/09 04:02:40;;;;;;;15.27;5.03;;;;;;;;;;6217975;23;20095;-82
2021/08/09 04:05:11;;;;;;;13.52;4.50;;;;;;;;;;6247310;23;20345;-80
2021/08/09 04:07:38;;;;;;;10.88;4.80;;;;;;;;;;6228631;23;20210;-80
2021/08/09 04:10:05;;;;;;;12.55;5.18;;;;;;;;;;6252475;23;20059;-80
2021/08/09 04:12:32;;;;;;;17.00;5.05;;;;;;;;;;6225836;23;20016;-80
2021/08/09 04:14:59;;;;;;;20.30;5.53;;;;;;;;;;6246890;23;20110;-80
2021/08/09 04:17:25;;;;;;;18.05;4.80;;;;;;;;;;6242624;23;20024;-81
2021/08/09 04:19:52;;;;;;;18.23;5.18;;;;;;;;;;6242107;23;20023;-81
2021/08/09 04:22:19;;;;;;;13.40;4.50;;;;;;;;;;6241810;23;20078;-81
2021/08/09 04:24:46;;;;;;;16.77;4.50;;;;;;;;;;6242262;23;20028;-81
2021/08/09 04:27:12;;;;;;;15.95;4.60;;;;;;;;;;6242188;23;20089;-81
2021/08/09 04:29:39;;;;;;;15.55;4.45;;;;;;;;;;6241226;23;20345;-81
2021/08/09 04:32:13;;;;;;;9.50;4.75;;;;;;;;;;6214715;23;20050;-81
2021/08/09 04:34:40;;;;;;;16.35;4.30;;;;;;;;;;6250309;22;20085;-81
2021/08/09 04:37:07;;;;;;;7.32;3.78;;;;;;;;;;6245606;22;20024;-81
2021/08/09 04:39:33;;;;;;;13.32;4.60;;;;;;;;;;6246528;22;20062;-81
2021/08/09 04:42:00;;;;;;;11.70;4.38;;;;;;;;;;6272290;22;20024;-81
2021/08/09 04:44:39;;;;;;;20.52;4.72;;;;;;;;;;6272914;22;20038;-82
2021/08/09 04:47:06;;;;;;;13.32;3.78;;;;;;;;;;6242809;22;20156;-80
2021/08/09 04:49:33;;;;;;;11.60;4.25;;;;;;;;;;6272526;22;20062;-81
2021/08/09 04:52:00;;;;;;;9.68;4.10;;;;;;;;;;6244398;22;20051;-81
2021/08/09 04:54:27;;;;;;;12.93;4.43;;;;;;;;;;6269325;22;20019;-81
2021/08/09 04:56:54;;;;;;;15.25;4.57;;;;;;;;;;6243346;22;20023;-81
2021/08/09 04:59:21;;;;;;;13.05;3.58;;;;;;;;;;6244101;22;20054;-80
2021/08/09 05:01:47;;;;;;;13.38;3.75;;;;;;;;;;6244569;22;20028;-80
2021/08/09 05:04:14;;;;;;;11.40;2.50;;;;;;;;;;6286382;22;20014;-80
2021/08/09 05:06:41;;;;;;;6.80;2.88;;;;;;;;;;6291715;22;20039;-79
2021/08/09 05:09:08;;;;;;;11.70;3.47;;;;;;;;;;6254945;22;20034;-80
2021/08/09 05:11:34;;;;;;;15.63;3.65;;;;;;;;;;6248825;22;20028;-80
2021/08/09 05:14:01;;;;;;;9.50;2.60;;;;;;;;;;6245497;22;20059;-81
2021/08/09 05:16:29;;;;;;;9.68;3.47;;;;;;;;;;6273833;22;20524;-81
2021/08/09 05:19:01;;;;;;;12.07;3.25;;;;;;;;;;6286840;22;20046;-81
2021/08/09 05:21:29;;;;;;;11.20;3.20;;;;;;;;;;6247851;22;20306;-82
2021/08/09 05:23:56;;;;;;;7.10;3.15;;;;;;;;;;6272067;22;20062;-82
2021/08/09 05:26:23;;;;;;;9.23;2.80;;;;;;;;;;6244391;22;20098;-80
2021/08/09 05:28:49;;;;;;;9.10;2.45;;;;;;;;;;6270508;22;20354;-79
2021/08/09 05:31:16;;;;;;;12.40;2.85;;;;;;;;;;6272595;22;20077;-82
2021/08/09 05:33:43;;;;;;;11.45;2.95;;;;;;;;;;6245912;22;20028;-82
2021/08/09 05:36:10;;;;;;;11.88;3.67;;;;;;;;;;6246395;22;20429;-82
2021/08/09 05:38:40;;;;;;;12.40;3.33;;;;;;;;;;6244951;22;20024;-81
2021/08/09 05:41:07;;;;;;;16.02;3.53;;;;;;;;;;6272662;22;20028;-81
2021/08/09 05:43:34;;;;;;;12.57;3.33;;;;;;;;;;6253366;22;20063;-80
2021/08/09 05:46:01;;;;;;;10.82;3.20;;;;;;;;;;6277504;22;20054;-81
2021/08/09 05:48:27;;;;;;;9.48;2.67;;;;;;;;;;6252623;22;20129;-81
2021/08/09 05:50:54;;;;;;;14.57;2.97;;;;;;;;;;6277091;22;20102;-81
2021/08/09 05:53:21;;;;;;;8.25;3.05;;;;;;;;;;6248299;22;20071;-81
2021/08/09 05:55:48;;;;;;;17.90;2.90;;;;;;;;;;6245872;22;20059;-82
2021/08/09 05:58:15;;;;;;;9.52;2.88;;;;;;;;;;6269591;22;20031;-82
2021/08/09 06:00:41;;;;;;;7.95;2.97;;;;;;;;;;6269244;22;20445;-82
2021/08/09 06:03:11;;;;;;;10.85;3.17;;;;;;;;;;6270373;22;20071;-82
2021/08/09 06:05:38;;;;;;;18.63;3.20;;;;;;;;;;6270713;22;20098;-82
2021/08/09 06:08:05;;;;;;;10.48;3.03;;;;;;;;;;6269764;22;20285;-82
2021/08/09 06:10:32;;;;;;;7.60;3.00;;;;;;;;;;6269744;22;20035;-81
2021/08/09 06:12:59;;;;;;;8.70;3.13;;;;;;;;;;6268574;22;20016;-81
2021/08/09 06:15:26;;;;;;;11.60;3.75;;;;;;;;;;6240974;22;20043;-81
2021/08/09 06:17:53;;;;;;;11.27;3.40;;;;;;;;;;6268916;22;20024;-80
2021/08/09 06:20:19;;;;;;;9.85;3.10;;;;;;;;;;6266432;22;20034;-81
2021/08/09 06:22:46;;;;;;;10.90;3.05;;;;;;;;;;6240901;22;20035;-81
2021/08/09 06:25:12;;;;;;;10.15;2.90;;;;;;;;;;6269693;22;20066;-81
2021/08/09 06:27:41;;;;;;;13.27;3.67;;;;;;;;;;6268590;22;20124;-81
2021/08/09 06:30:08;;;;;;;8.45;3.20;;;;;;;;;;6239653;22;20027;-81
2021/08/09 06:32:35;;;;;;;10.02;2.65;;;;;;;;;;6242430;22;20079;-84
2021/08/09 06:35:04;;;;;;;8.63;3.15;;;;;;;;;;6241591;22;20476;-82
2021/08/09 06:37:36;;;;;;;12.68;2.83;;;;;;;;;;6270224;22;20263;-84
2021/08/09 06:40:04;;;;;;;8.75;3.17;;;;;;;;;;6242086;22;20664;-82
2021/08/09 06:42:38;;;;;;;6.97;2.42;;;;;;;;;;6245345;22;20382;-83
2021/08/09 06:45:05;;;;;;;11.38;2.55;;;;;;;;;;6267101;22;20082;-81
2021/08/09 06:47:37;;;;;;;10.35;3.08;;;;;;;;;;6240947;22;20219;-81
2021/08/09 06:50:04;;;;;;;12.77;2.83;;;;;;;;;;6242292;22;20226;-82
2021/08/09 06:52:37;;;;;;;8.75;3.03;;;;;;;;;;6242536;22;20024;-83
2021/08/09 06:55:05;;;;;;;9.50;3.30;;;;;;;;;;6246965;22;20024;-83
2021/08/09 06:57:32;;;;;;;11.27;2.45;;;;;;;;;;6272258;22;20102;-83
2021/08/09 07:00:01;;;;;;;8.63;2.80;;;;;;;;;;6269955;22;20617;-81
2021/08/09 07:02:28;;;;;;;10.35;2.50;;;;;;;;;;6241718;22;20024;-82
2021/08/09 07:04:55;;;;;;;10.07;2.78;;;;;;;;;;6242175;22;20024;-83
2021/08/09 07:07:25;;;;;;;10.05;3.55;;;;;;;;;;6244738;22;20309;-82
2021/08/09 07:09:52;;;;;;;8.32;2.50;;;;;;;;;;6244381;22;20023;-82
2021/08/09 07:12:19;;;;;;;6.93;2.50;;;;;;;;;;6270028;22;20283;-82
2021/08/09 07:14:48;;;;;;;6.38;2.50;;;;;;;;;;6241359;22;20498;-82
2021/08/09 07:17:18;;;;;;;11.77;2.80;;;;;;;;;;6243405;22;20079;-85
2021/08/09 07:19:46;;;;;;;11.40;2.78;;;;;;;;;;6245240;22;20230;-84
2021/08/09 07:22:13;;;;;;;7.85;2.83;;;;;;;;;;6245493;22;20063;-82
2021/08/09 07:24:40;;;;;;;7.88;2.40;;;;;;;;;;6270413;22;20230;-82
2021/08/09 07:27:09;;;;;;;10.50;2.83;;;;;;;;;;6246079;22;20031;-82
2021/08/09 07:29:35;;;;;;;8.50;2.45;;;;;;;;;;6269700;22;20293;-83
2021/08/09 07:32:02;;;;;;;8.77;2.70;;;;;;;;;;6244346;22;20028;-82
2021/08/09 07:34:30;;;;;;;9.40;2.33;;;;;;;;;;6246216;22;20260;-83
2021/08/09 07:36:56;;;;;;;8.52;2.70;;;;;;;;;;6245122;22;20554;-83
2021/08/09 07:39:24;;;;;;;13.15;2.85;;;;;;;;;;6273265;22;20035;-86
2021/08/09 07:41:57;;;;;;;12.60;3.05;;;;;;;;;;6246633;22;20079;-86
2021/08/09 07:44:36;;;;;;;17.08;3.17;;;;;;;;;;6276850;22;20032;-84
2021/08/09 07:47:03;;;;;;;11.85;2.60;;;;;;;;;;6247549;22;20054;-84
2021/08/09 07:49:33;;;;;;;10.90;2.53;;;;;;;;;;6278709;22;20311;-85
2021/08/09 07:52:00;;;;;;;8.35;2.35;;;;;;;;;;6274030;22;20309;-84
2021/08/09 07:54:27;;;;;;;18.88;2.88;;;;;;;;;;6276472;22;20066;-86
2021/08/09 07:56:53;;;;;;;7.32;2.30;;;;;;;;;;6249723;22;20386;-86
2021/08/09 07:59:21;;;;;;;10.57;2.78;;;;;;;;;;6280031;22;20020;-86
2021/08/09 08:01:48;;;;;;;9.55;2.13;;;;;;;;;;6249820;22;20027;-86
2021/08/09 08:04:14;;;;;;;8.77;2.30;;;;;;;;;;6248801;22;20058;-84
2021/08/09 08:06:41;;;;;;;12.63;2.17;;;;;;;;;;6277851;22;20472;-85
2021/08/09 08:09:08;;;;;;;9.57;2.70;;;;;;;;;;6251117;22;20031;-85
2021/08/09 08:11:38;;;;;;;14.07;2.30;;;;;;;;;;6265009;22;20055;-85
2021/08/09 08:14:04;;;;;;;10.98;2.10;;;;;;;;;;6292096;22;20105;-85
2021/08/09 08:16:31;;;;;;;13.15;2.55;;;;;;;;;;6289766;22;20080;-85
2021/08/09 08:19:05;;;;;;;12.63;2.72;;;;;;;;;;6291030;22;20019;-85
2021/08/09 08:21:34;;;;;;;9.68;2.05;;;;;;;;;;6294364;22;20046;-85
2021/08/09 08:24:01;;;;;;;6.65;1.92;;;;;;;;;;6292581;22;20099;-86
2021/08/09 08:26:28;;;;;;;8.32;2.00;;;;;;;;;;6251402;22;20024;-86
2021/08/09 08:28:56;;;;;;;10.35;2.00;;;;;;;;;;6275950;22;20035;-85
2021/08/09 08:31:22;;;;;;;8.60;1.88;;;;;;;;;;6274711;22;20031;-87
2021/08/09 08:33:49;;;;;;;11.65;2.70;;;;;;;;;;6272423;22;20090;-85
2021/08/09 08:36:16;;;;;;;5.95;1.40;;;;;;;;;;6273438;22;20098;-87
2021/08/09 08:38:43;;;;;;;7.18;1.95;;;;;;;;;;6276379;22;20023;-85
2021/08/09 08:41:09;;;;;;;7.65;1.83;;;;;;;;;;6280079;22;20378;-86
2021/08/09 08:43:36;;;;;;;9.45;2.13;;;;;;;;;;6278658;22;20098;-87
2021/08/09 08:46:04;;;;;;;8.55;1.90;;;;;;;;;;6253174;22;20024;-87
2021/08/09 08:48:32;;;;;;;7.28;1.80;;;;;;;;;;6253733;22;20051;-86
2021/08/09 08:51:19;;;;;;;5.40;1.50;;;;;;;;;;6277143;22;20027;-87
2021/08/09 08:53:48;;;;;;;5.80;1.63;;;;;;;;;;6251621;22;20099;-86
2021/08/09 08:56:15;;;;;;;6.03;1.35;;;;;;;;;;6279065;22;20066;-85
2021/08/09 08:58:42;;;;;;;8.15;1.58;;;;;;;;;;6250671;22;20019;-87
2021/08/09 09:01:08;;;;;;;7.70;1.67;;;;;;;;;;6273940;22;20184;-86
2021/08/09 09:03:39;;;;;;;8.57;1.40;;;;;;;;;;6243813;22;20023;-86
2021/08/09 09:06:07;;;;;;;5.80;1.80;;;;;;;;;;6245216;22;20028;-86
2021/08/09 09:08:40;;;;;;;9.10;1.52;;;;;;;;;;6248153;22;20290;-87
2021/08/09 09:11:08;;;;;;;7.57;2.17;;;;;;;;;;6275596;22;20034;-87
2021/08/09 09:13:35;;;;;;;8.98;1.83;;;;;;;;;;6271956;22;20028;-86
2021/08/09 09:16:06;;;;;;;7.63;1.77;;;;;;;;;;6249463;22;20031;-87
2021/08/09 09:18:47;;;;;;;6.72;1.77;;;;;;;;;;6246291;22;20077;-87
2021/08/09 09:21:25;;;;;;;7.50;1.67;;;;;;;;;;6273670;22;20089;-87
2021/08/09 09:23:52;;;;;;;6.90;1.73;;;;;;;;;;6272217;22;20239;-87
2021/08/09 09:26:21;;;;;;;5.57;1.50;;;;;;;;;;6273479;22;20031;-87
2021/08/09 09:28:51;;;;;;;8.75;1.85;;;;;;;;;;6274001;22;20262;-85
2021/08/09 09:31:28;;;;;;;4.97;1.55;;;;;;;;;;6246179;22;20023;-87
2021/08/09 09:33:55;;;;;;;7.65;1.98;;;;;;;;;;6269588;22;20023;-87
2021/08/09 09:36:22;;;;;;;9.60;1.83;;;;;;;;;;6246935;22;20048;-87
2021/08/09 09:38:51;;;;;;;10.50;1.75;;;;;;;;;;6247857;22;20024;-86
2021/08/09 09:41:22;;;;;;;7.65;1.60;;;;;;;;;;6245520;22;20059;-87
2021/08/09 09:43:51;;;;;;;8.27;1.60;;;;;;;;;;6244294;22;20189;-86
2021/08/09 09:46:22;;;;;;;5.90;1.40;;;;;;;;;;6274482;22;20093;-87
2021/08/09 09:48:50;;;;;;;8.68;1.40;;;;;;;;;;6247302;22;20028;-86
2021/08/09 09:51:17;;;;;;;5.43;1.48;;;;;;;;;;6233850;22;20154;-86
2021/08/09 09:53:45;;;;;;;9.18;2.10;;;;;;;;;;6244866;22;20061;-87
2021/08/09 09:56:12;;;;;;;4.68;1.35;;;;;;;;;;6246394;22;20042;-86
2021/08/09 09:58:39;;;;;;;5.13;1.23;;;;;;;;;;6269979;22;20043;-87
2021/08/09 10:01:07;;;;;;;5.72;1.17;;;;;;;;;;6244279;22;20090;-87
2021/08/09 10:03:35;;;;;;;7.20;1.63;;;;;;;;;;6251557;22;20088;-85
2021/08/09 10:06:03;;;;;;;6.35;1.92;;;;;;;;;;6246707;22;20409;-86
2021/08/09 10:08:34;;;;;;;6.90;1.38;;;;;;;;;;6245242;22;20074;-88
2021/08/09 10:11:03;;;;;;;6.65;1.55;;;;;;;;;;6244132;22;20050;-85
2021/08/09 10:13:30;;;;;;;10.48;2.40;;;;;;;;;;6242936;22;20394;-87
2021/08/09 10:16:08;;;;;;;7.00;1.40;;;;;;;;;;6245110;22;20019;-86
2021/08/09 10:18:36;;;;;;;5.93;0.98;;;;;;;;;;6273760;22;20024;-86
2021/08/09 10:21:03;;;;;;;4.35;1.13;;;;;;;;;;6273758;22;20027;-87
2021/08/09 10:23:39;;;;;;;8.40;1.25;;;;;;;;;;6270066;22;20386;-87
2021/08/09 10:26:13;;;;;;;7.47;1.60;;;;;;;;;;6273177;22;20105;-88
2021/08/09 10:28:55;;;;;;;5.28;1.50;;;;;;;;;;6245434;22;20027;-87
2021/08/09 10:31:22;;;;;;;6.28;1.48;;;;;;;;;;6241442;22;20035;-84
2021/08/09 10:33:56;;;;;;;5.63;1.40;;;;;;;;;;6241357;22;20256;-85
2021/08/09 10:36:23;;;;;;;6.60;1.50;;;;;;;;;;6239289;22;20097;-85
2021/08/09 10:38:51;;;;;;;7.30;1.40;;;;;;;;;;6239767;22;20051;-87
2021/08/09 10:41:25;;;;;;;8.40;1.50;;;;;;;;;;6243416;22;20189;-86
2021/08/09 10:44:04;;;;;;;5.60;1.45;;;;;;;;;;6243733;22;20037;-86
2021/08/09 10:46:38;;;;;;;7.95;1.88;;;;;;;;;;6239353;22;20152;-86
2021/08/09 10:49:07;;;;;;;;;;;;;;;;;;6241227;22;20023;-86
2021/08/09 10:51:52;;;;;;;8.55;1.92;;;;;;;;;;6242301;22;20324;-88
2021/08/09 10:54:26;;;;;;;8.67;1.70;;;;;;;;;;6267671;22;20028;-87
2021/08/09 10:56:53;;;;;;;8.77;1.38;;;;;;;;;;6245886;22;20023;-86
2021/08/09 10:59:39;;;;;;;10.48;2.03;;;;;;;;;;6269388;22;20034;-86
2021/08/09 11:02:18;;;;;;;8.75;1.50;;;;;;;;;;6238625;22;20065;-86
2021/08/09 11:05:04;;;;;;;5.80;1.38;;;;;;;;;;6264899;22;20031;-87
2021/08/09 11:07:34;;;;;;;7.15;1.35;;;;;;;;;;6268989;22;20402;-87
2021/08/09 11:10:00;;;;;;;8.13;1.45;;;;;;;;;;6242675;22;20020;-86
2021/08/09 11:12:28;;;;;;;3.30;1.23;;;;;;;;;;6251829;22;20016;-86
2021/08/09 11:15:02;;;;;;;8.85;1.38;;;;;;;;;;6262929;22;20042;-87
2021/08/09 11:17:38;;;;;;;8.75;1.88;;;;;;;;;;6252493;22;20095;-85
2021/08/09 11:20:05;;;;;;;;;;;;;;;;;;6259095;22;20024;-86
2021/08/09 11:22:32;;;;;;;9.30;1.60;;;;;;;;;;6291178;22;19903;-86
2021/08/09 11:24:58;;;;;;;7.47;1.45;;;;;;;;;;6263183;22;20012;-87
2021/08/09 11:27:25;;;;;;;9.05;2.15;;;;;;;;;;6289050;22;20024;-87
2021/08/09 11:29:58;;;;;;;7.97;1.60;;;;;;;;;;6261797;22;20189;-87
2021/08/09 11:32:34;;;;;;;9.85;1.88;;;;;;;;;;6251068;22;20115;-87
2021/08/09 11:35:03;;;;;;;8.43;2.13;;;;;;;;;;6278166;22;20075;-87
2021/08/09 11:37:54;;;;;;;5.22;1.50;;;;;;;;;;6289667;22;20276;-87
2021/08/09 11:40:38;;;;;;;6.75;1.92;;;;;;;;;;6284457;22;20050;-87
2021/08/09 11:43:05;;;;;;;6.03;1.50;;;;;;;;;;6244679;22;20150;-87
2021/08/09 11:45:32;;;;;;;8.73;1.65;;;;;;;;;;6247740;22;20175;-87
2021/08/09 11:48:03;;;;;;;7.70;1.52;;;;;;;;;;6287735;22;20012;-88
2021/08/09 11:50:34;;;;;;;8.10;1.98;;;;;;;;;;6259101;22;20044;-87
2021/08/09 11:53:01;;;;;;;4.80;1.25;;;;;;;;;;6262271;22;20011;-87
2021/08/09 11:55:31;;;;;;;7.97;1.77;;;;;;;;;;6256158;22;20024;-86
2021/08/09 11:57:57;;;;;;;5.55;1.50;;;;;;;;;;6248004;22;20024;-86
2021/08/09 12:00:36;;;;;;;4.25;1.40;;;;;;;;;;6270434;22;20059;-87
2021/08/09 12:03:26;;;;;;;5.53;1.60;;;;;;;;;;6271399;22;20023;-87
2021/08/09 12:05:55;;;;;;;8.27;1.90;;;;;;;;;;6274060;22;20028;-86
2021/08/09 12:08:23;;;;;;;8.05;1.63;;;;;;;;;;6274358;22;20298;-86
2021/08/09 12:10:50;;;;;;;6.35;1.83;;;;;;;;;;6271828;22;20023;-86
2021/08/09 12:13:24;;;;;;;5.97;1.60;;;;;;;;;;6274853;22;20062;-86
2021/08/09 12:16:07;;;;;;;6.45;1.67;;;;;;;;;;6272759;22;20023;-86
2021/08/09 12:18:34;;;;;;;8.73;1.55;;;;;;;;;;6272813;22;20023;-86
2021/08/09 12:21:12;;;;;;;7.47;1.73;;;;;;;;;;6272288;22;20024;-87
2021/08/09 12:23:49;;;;;;;7.82;1.60;;;;;;;;;;6271764;22;20390;-86
2021/08/09 12:26:32;;;;;;;5.97;1.42;;;;;;;;;;6271592;22;20350;-86
2021/08/09 12:29:01;;;;;;;6.05;1.80;;;;;;;;;;6247081;22;20028;-86
2021/08/09 12:31:31;;;;;;;6.68;1.52;;;;;;;;;;6270969;22;20302;-86
2021/08/09 12:34:01;;;;;;;5.20;1.45;;;;;;;;;;6270302;22;20131;-86
2021/08/09 12:36:30;;;;;;;6.30;1.50;;;;;;;;;;6210215;23;20099;-87
2021/08/09 12:38:57;;;;;;;6.75;1.52;;;;;;;;;;6238385;23;20412;-86
2021/08/09 12:41:28;;;;;;;5.53;1.50;;;;;;;;;;6212693;23;20056;-86
2021/08/09 12:44:03;;;;;;;4.40;1.65;;;;;;;;;;6237677;23;20056;-86
2021/08/09 12:46:33;;;;;;;5.75;1.50;;;;;;;;;;6213810;23;20197;-86
2021/08/09 12:49:03;;;;;;;4.28;1.20;;;;;;;;;;6216412;23;20023;-85
2021/08/09 12:51:30;;;;;;;8.57;2.00;;;;;;;;;;6212248;23;20197;-87
2021/08/09 12:53:56;;;;;;;7.47;2.20;;;;;;;;;;6242641;23;20024;-86
2021/08/09 12:56:24;;;;;;;8.80;2.00;;;;;;;;;;6213434;23;20031;-87
2021/08/09 12:58:51;;;;;;;6.40;1.77;;;;;;;;;;6214548;23;20086;-87
2021/08/09 13:01:18;;;;;;;7.93;1.90;;;;;;;;;;6216851;23;20360;-85
2021/08/09 13:03:45;;;;;;;6.90;1.48;;;;;;;;;;6228634;23;20044;-84
2021/08/09 13:06:14;;;;;;;4.45;1.27;;;;;;;;;;6226006;23;20024;-84
2021/08/09 13:08:41;;;;;;;4.72;1.30;;;;;;;;;;6225144;23;20027;-83
2021/08/09 13:11:08;;;;;;;6.75;1.48;;;;;;;;;;6226725;23;20023;-83
2021/08/09 13:13:38;;;;;;;3.80;1.55;;;;;;;;;;6217382;23;20024;-84
2021/08/09 13:16:06;;;;;;;7.43;1.63;;;;;;;;;;6215641;23;20382;-83
2021/08/09 13:18:33;;;;;;;4.45;1.15;;;;;;;;;;6239726;23;20024;-84
2021/08/09 13:21:06;;;;;;;4.38;1.08;;;;;;;;;;6212200;23;20176;-83
2021/08/09 13:23:33;;;;;;;3.05;1.10;;;;;;;;;;6209373;23;20024;-83
2021/08/09 13:26:02;;;;;;;4.40;1.17;;;;;;;;;;6208227;23;20215;-83
2021/08/09 13:28:31;;;;;;;4.95;1.20;;;;;;;;;;6211623;23;20050;-82
2021/08/09 13:30:58;;;;;;;4.45;1.10;;;;;;;;;;6213211;23;20527;-84
2021/08/09 13:33:27;;;;;;;4.88;1.10;;;;;;;;;;6211838;23;20192;-84
2021/08/09 13:35:54;;;;;;;5.13;1.42;;;;;;;;;;6234731;22;20024;-83
2021/08/09 13:38:21;;;;;;;5.35;1.52;;;;;;;;;;6268788;22;20043;-83
2021/08/09 13:40:48;;;;;;;6.75;1.73;;;;;;;;;;6310862;22;20196;-83
2021/08/09 13:43:15;;;;;;;3.83;1.23;;;;;;;;;;6236162;22;20031;-83
2021/08/09 13:45:42;;;;;;;5.93;1.20;;;;;;;;;;6244961;22;20192;-83
2021/08/09 13:48:09;;;;;;;4.93;1.48;;;;;;;;;;6265757;22;20024;-83
2021/08/09 13:50:42;;;;;;;5.97;1.30;;;;;;;;;;6290691;22;20087;-83
2021/08/09 13:53:12;;;;;;;7.68;1.55;;;;;;;;;;6240228;22;20568;-83
2021/08/09 13:55:39;;;;;;;2.67;1.02;;;;;;;;;;6271477;22;20023;-84
2021/08/09 13:58:09;;;;;;;6.13;1.85;;;;;;;;;;6241553;22;20106;-82
2021/08/09 14:00:42;;;;;;;8.40;1.60;;;;;;;;;;6272017;22;20079;-85
2021/08/09 14:03:10;;;;;;;6.25;1.48;;;;;;;;;;6293060;22;20434;-82
2021/08/09 14:05:37;;;;;;;3.00;1.20;;;;;;;;;;6267556;22;20051;-83
2021/08/09 14:08:05;;;;;;;5.03;1.20;;;;;;;;;;6267032;22;20031;-83
2021/08/09 14:10:44;;;;;;;6.22;1.23;;;;;;;;;;6247921;22;20027;-85
2021/08/09 14:13:14;;;;;;;6.13;1.60;;;;;;;;;;6259914;22;20043;-84
2021/08/09 14:15:46;;;;;;;4.53;1.63;;;;;;;;;;6288454;22;20019;-83
2021/08/09 14:18:12;;;;;;;5.90;1.45;;;;;;;;;;6246513;22;20290;-84
2021/08/09 14:20:39;;;;;;;8.27;1.88;;;;;;;;;;6276134;22;20027;-83
2021/08/09 14:23:06;;;;;;;6.55;1.63;;;;;;;;;;6257337;22;20237;-83
2021/08/09 14:25:36;;;;;;;6.95;1.70;;;;;;;;;;6285007;22;20027;-84
2021/08/09 14:28:03;;;;;;;4.90;1.40;;;;;;;;;;6251708;22;20023;-84
2021/08/09 14:30:33;;;;;;;4.13;1.30;;;;;;;;;;6269686;22;20050;-84
2021/08/09 14:33:01;;;;;;;8.10;1.80;;;;;;;;;;6253594;22;20163;-83
2021/08/09 14:35:28;;;;;;;7.68;1.58;;;;;;;;;;6242523;22;20024;-85
2021/08/09 14:37:56;;;;;;;3.50;1.25;;;;;;;;;;6268882;22;20020;-85
2021/08/09 14:40:23;;;;;;;4.93;1.45;;;;;;;;;;6300015;22;20031;-85
2021/08/09 14:42:50;;;;;;;4.80;1.27;;;;;;;;;;6270219;22;20082;-85
2021/08/09 14:45:17;;;;;;;6.38;1.55;;;;;;;;;;6243224;22;20235;-85
2021/08/09 14:47:45;;;;;;;5.57;1.67;;;;;;;;;;6268540;22;20072;-85
2021/08/09 14:50:12;;;;;;;5.20;1.77;;;;;;;;;;6240294;22;20111;-85
2021/08/09 14:52:38;;;;;;;6.13;1.38;;;;;;;;;;6272088;22;20058;-84